createdAt,value
2023-04-03T00:00:15.820Z,71.03
2023-04-03T00:01:15.826Z,70.83
2023-04-03T00:02:15.834Z,70.83
2023-04-03T00:03:15.835Z,69.92
2023-04-03T00:04:15.831Z,69.73
2023-04-03T00:05:15.791Z,69.92
2023-04-03T00:06:15.767Z,69.12
2023-04-03T00:07:15.783Z,69.42
2023-04-03T00:08:15.703Z,69.32
2023-04-03T00:09:15.714Z,69.06
2023-04-03T00:10:15.723Z,69.56
2023-04-03T00:11:16.343Z,69.35
2023-04-03T00:12:15.691Z,69.53
2023-04-03T00:13:15.697Z,69.32
2023-04-03T00:14:15.651Z,69.42
2023-04-03T00:15:15.647Z,69.62
2023-04-03T00:16:15.805Z,69.53
2023-04-03T00:17:15.629Z,69.42
2023-04-03T00:18:15.636Z,69.32
2023-04-03T00:19:15.839Z,69.22
2023-04-03T00:20:15.643Z,69.22
2023-04-03T00:21:15.640Z,69.12
2023-04-03T00:22:15.606Z,69.12
2023-04-03T00:23:15.561Z,69.12
2023-04-03T00:24:15.507Z,69.22
2023-04-03T00:25:15.577Z,69.42
2023-04-03T00:26:15.541Z,69.06
2023-04-03T00:27:15.526Z,69.56
2023-04-03T00:28:15.532Z,69.66
2023-04-03T00:29:15.546Z,69.85
2023-04-03T00:30:15.516Z,69.85
2023-04-03T00:31:15.586Z,69.76
2023-04-03T00:32:15.524Z,69.85
2023-04-03T00:33:15.505Z,69.96
2023-04-03T00:34:15.540Z,69.85
2023-04-03T00:35:15.476Z,69.85
2023-04-03T00:36:15.627Z,70.06
2023-04-03T00:37:16.377Z,69.92
2023-04-03T00:38:15.430Z,69.82
2023-04-03T00:39:15.441Z,69.82
2023-04-03T00:40:15.969Z,69.82
2023-04-03T00:41:17.254Z,69.92
2023-04-03T00:42:15.331Z,69.92
2023-04-03T00:43:15.441Z,70.12
2023-04-03T00:44:15.274Z,70.12
2023-04-03T00:45:15.237Z,70.03
2023-04-03T00:46:15.317Z,70.32
2023-04-03T00:47:15.218Z,70.63
2023-04-03T00:48:15.221Z,70.86
2023-04-03T00:49:15.261Z,71.26
2023-04-03T00:50:15.249Z,71.13
2023-04-03T00:51:15.317Z,71.13
2023-04-03T00:52:15.233Z,71.23
2023-04-03T00:53:15.155Z,71.33
2023-04-03T00:54:15.197Z,71.33
2023-04-03T00:55:15.204Z,71.56
2023-04-03T00:56:15.212Z,71.53
2023-04-03T00:57:15.181Z,71.33
2023-04-03T00:58:15.172Z,71.23
2023-04-03T00:59:16.064Z,71.63
2023-04-03T01:00:15.067Z,71.53
2023-04-03T01:01:15.171Z,71.83
2023-04-03T01:02:15.148Z,71.63
2023-04-03T01:03:15.051Z,71.53
2023-04-03T01:04:15.064Z,71.73
2023-04-03T01:05:15.060Z,71.63
2023-04-03T01:06:15.066Z,71.73
2023-04-03T01:07:15.119Z,71.83
2023-04-03T01:08:15.302Z,71.73
2023-04-03T01:09:15.088Z,71.66
2023-04-03T01:10:15.007Z,71.77
2023-04-03T01:11:15.003Z,71.77
2023-04-03T01:12:14.947Z,71.56
2023-04-03T01:13:15.329Z,71.73
2023-04-03T01:14:14.923Z,71.16
2023-04-03T01:15:14.975Z,71.56
2023-04-03T01:16:14.983Z,71.97
2023-04-03T01:17:14.894Z,72.37
2023-04-03T01:18:14.880Z,72.47
2023-04-03T01:19:14.957Z,72.56
2023-04-03T01:20:14.865Z,72.56
2023-04-03T01:21:14.863Z,72.37
2023-04-03T01:22:15.013Z,72.27
2023-04-03T01:23:14.886Z,71.97
2023-04-03T01:24:14.888Z,71.86
2023-04-03T01:25:14.830Z,71.66
2023-04-03T01:26:14.835Z,71.66
2023-04-03T01:27:14.819Z,71.86
2023-04-03T01:28:14.853Z,71.86
2023-04-03T01:29:14.754Z,71.66
2023-04-03T01:30:14.872Z,71.86
2023-04-03T01:31:14.796Z,72.06
2023-04-03T01:32:14.783Z,72.27
2023-04-03T01:33:14.745Z,72.37
2023-04-03T01:34:15.072Z,72.06
2023-04-03T01:35:14.760Z,71.86
2023-04-03T01:36:14.749Z,71.73
2023-04-03T01:37:14.718Z,71.83
2023-04-03T01:38:14.729Z,71.73
2023-04-03T01:39:14.816Z,72.03
2023-04-03T01:40:14.803Z,72.03
2023-04-03T01:41:14.737Z,71.77
2023-04-03T01:42:14.653Z,71.86
2023-04-03T01:43:14.712Z,71.77
2023-04-03T01:44:14.653Z,71.97
2023-04-03T01:45:15.367Z,72.06
2023-04-03T01:46:14.665Z,71.86
2023-04-03T01:47:14.595Z,71.43
2023-04-03T01:48:14.578Z,71.33
2023-04-03T01:49:14.575Z,71.33
2023-04-03T01:50:14.785Z,71.33
2023-04-03T01:51:14.926Z,71.53
2023-04-03T01:52:14.512Z,71.16
2023-04-03T01:53:14.525Z,70.76
2023-04-03T01:54:14.532Z,71.36
2023-04-03T01:55:14.520Z,71.50
2023-04-03T01:56:14.558Z,71.50
2023-04-03T01:57:15.358Z,71.60
2023-04-03T01:58:14.508Z,71.56
2023-04-03T01:59:14.467Z,71.47
2023-04-03T02:00:14.454Z,71.66
2023-04-03T02:01:15.423Z,71.77
2023-04-03T02:02:14.453Z,71.66
2023-04-03T02:03:15.056Z,71.66
2023-04-03T02:04:14.451Z,71.36
2023-04-03T02:05:14.395Z,71.56
2023-04-03T02:06:14.404Z,71.47
2023-04-03T02:07:14.488Z,70.46
2023-04-03T02:08:14.420Z,70.86
2023-04-03T02:09:14.326Z,71.36
2023-04-03T02:10:14.447Z,71.36
2023-04-03T02:11:14.343Z,71.77
2023-04-03T02:12:14.366Z,71.66
2023-04-03T02:13:14.357Z,71.56
2023-04-03T02:14:14.459Z,71.77
2023-04-03T02:15:14.264Z,71.56
2023-04-03T02:16:14.295Z,71.66
2023-04-03T02:17:14.268Z,71.66
2023-04-03T02:18:14.360Z,71.47
2023-04-03T02:19:14.423Z,71.56
2023-04-03T02:20:14.199Z,71.77
2023-04-03T02:21:14.189Z,71.77
2023-04-03T02:22:14.196Z,71.77
2023-04-03T02:23:14.317Z,71.77
2023-04-03T02:24:14.215Z,72.06
2023-04-03T02:25:14.198Z,72.17
2023-04-03T02:26:14.139Z,71.47
2023-04-03T02:27:14.158Z,71.47
2023-04-03T02:28:14.131Z,71.36
2023-04-03T02:29:14.122Z,70.70
2023-04-03T02:30:14.145Z,71.09
2023-04-03T02:31:14.174Z,71.60
2023-04-03T02:32:14.139Z,72.10
2023-04-03T02:33:14.076Z,72.10
2023-04-03T02:34:14.172Z,72.10
2023-04-03T02:35:14.084Z,72.10
2023-04-03T02:36:14.109Z,72.30
2023-04-03T02:37:14.148Z,71.50
2023-04-03T02:38:14.012Z,71.70
2023-04-03T02:39:14.083Z,71.90
2023-04-03T02:40:14.010Z,72.00
2023-04-03T02:41:14.618Z,71.40
2023-04-03T02:42:14.035Z,71.60
2023-04-03T02:43:14.028Z,71.70
2023-04-03T02:44:13.948Z,71.50
2023-04-03T02:45:13.952Z,71.70
2023-04-03T02:46:14.025Z,71.70
2023-04-03T02:47:13.956Z,71.80
2023-04-03T02:48:13.968Z,71.90
2023-04-03T02:49:13.975Z,71.80
2023-04-03T02:50:13.893Z,71.80
2023-04-03T02:51:15.554Z,71.90
2023-04-03T02:52:13.905Z,71.80
2023-04-03T02:53:13.890Z,71.70
2023-04-03T02:54:13.909Z,71.66
2023-04-03T02:55:13.929Z,71.66
2023-04-03T02:56:13.830Z,71.66
2023-04-03T02:57:13.856Z,71.77
2023-04-03T02:58:13.850Z,71.80
2023-04-03T02:59:13.852Z,72.20
2023-04-03T03:00:13.867Z,71.70
2023-04-03T03:01:13.913Z,71.70
2023-04-03T03:02:13.841Z,72.20
2023-04-03T03:03:13.760Z,72.30
2023-04-03T03:04:13.858Z,72.10
2023-04-03T03:05:13.809Z,71.70
2023-04-03T03:06:13.790Z,71.70
2023-04-03T03:07:13.809Z,72.10
2023-04-03T03:08:13.712Z,72.10
2023-04-03T03:09:13.676Z,72.24
2023-04-03T03:10:13.723Z,72.64
2023-04-03T03:11:13.766Z,72.64
2023-04-03T03:12:13.709Z,73.14
2023-04-03T03:13:13.744Z,73.04
2023-04-03T03:14:13.665Z,72.24
2023-04-03T03:15:13.654Z,72.64
2023-04-03T03:16:13.678Z,72.74
2023-04-03T03:17:13.667Z,72.74
2023-04-03T03:18:13.566Z,73.04
2023-04-03T03:19:13.572Z,72.94
2023-04-03T03:20:13.583Z,72.74
2023-04-03T03:21:13.572Z,72.74
2023-04-03T03:22:13.596Z,72.53
2023-04-03T03:23:13.682Z,72.53
2023-04-03T03:24:13.603Z,72.53
2023-04-03T03:25:13.516Z,72.84
2023-04-03T03:26:13.500Z,72.84
2023-04-03T03:27:13.596Z,72.84
2023-04-03T03:28:13.522Z,72.94
2023-04-03T03:29:13.825Z,72.71
2023-04-03T03:30:13.484Z,72.80
2023-04-03T03:31:13.550Z,72.80
2023-04-03T03:32:14.036Z,72.90
2023-04-03T03:33:13.539Z,73.00
2023-04-03T03:34:13.451Z,72.80
2023-04-03T03:35:13.496Z,73.00
2023-04-03T03:36:13.499Z,72.90
2023-04-03T03:37:13.387Z,72.90
2023-04-03T03:38:13.474Z,72.90
2023-04-03T03:39:13.395Z,72.80
2023-04-03T03:40:13.401Z,72.60
2023-04-03T03:41:13.513Z,72.60
2023-04-03T03:42:13.331Z,72.50
2023-04-03T03:43:13.332Z,72.30
2023-04-03T03:44:14.891Z,72.10
2023-04-03T03:45:13.331Z,72.30
2023-04-03T03:46:13.379Z,71.90
2023-04-03T03:47:13.285Z,71.90
2023-04-03T03:48:13.272Z,71.60
2023-04-03T03:49:13.327Z,71.50
2023-04-03T03:50:13.273Z,71.50
2023-04-03T03:51:13.274Z,71.40
2023-04-03T03:52:13.284Z,71.50
2023-04-03T03:53:13.192Z,71.70
2023-04-03T03:54:13.200Z,72.00
2023-04-03T03:55:13.202Z,72.00
2023-04-03T03:56:13.212Z,72.20
2023-04-03T03:57:13.224Z,72.00
2023-04-03T03:58:13.199Z,72.00
2023-04-03T03:59:13.135Z,72.10
2023-04-03T04:00:13.156Z,72.33
2023-04-03T04:01:13.143Z,72.53
2023-04-03T04:02:14.223Z,72.53
2023-04-03T04:03:13.218Z,72.64
2023-04-03T04:04:13.258Z,72.64
2023-04-03T04:05:13.179Z,72.84
2023-04-03T04:06:13.069Z,72.74
2023-04-03T04:07:13.176Z,72.44
2023-04-03T04:08:13.094Z,72.64
2023-04-03T04:09:13.309Z,72.84
2023-04-03T04:10:13.011Z,72.74
2023-04-03T04:11:13.006Z,72.74
2023-04-03T04:12:13.095Z,72.94
2023-04-03T04:13:13.088Z,72.64
2023-04-03T04:14:13.018Z,72.53
2023-04-03T04:15:13.043Z,72.33
2023-04-03T04:16:12.959Z,72.30
2023-04-03T04:17:13.021Z,72.24
2023-04-03T04:18:13.866Z,72.30
2023-04-03T04:19:14.187Z,72.30
2023-04-03T04:20:12.979Z,72.33
2023-04-03T04:21:12.976Z,72.53
2023-04-03T04:22:12.946Z,72.53
2023-04-03T04:23:12.896Z,72.74
2023-04-03T04:24:12.879Z,72.33
2023-04-03T04:25:12.927Z,72.53
2023-04-03T04:26:12.888Z,72.44
2023-04-03T04:27:12.900Z,72.74
2023-04-03T04:28:12.846Z,72.84
2023-04-03T04:29:12.829Z,72.84
2023-04-03T04:30:13.010Z,73.04
2023-04-03T04:31:14.543Z,73.24
2023-04-03T04:32:12.814Z,73.34
2023-04-03T04:33:12.820Z,73.24
2023-04-03T04:34:12.740Z,73.24
2023-04-03T04:35:14.737Z,73.44
2023-04-03T04:36:12.825Z,73.24
2023-04-03T04:37:12.842Z,73.34
2023-04-03T04:38:12.811Z,73.54
2023-04-03T04:39:13.308Z,73.34
2023-04-03T04:40:12.693Z,73.24
2023-04-03T04:41:12.870Z,73.24
2023-04-03T04:42:14.497Z,73.14
2023-04-03T04:43:12.704Z,73.04
2023-04-03T04:44:12.706Z,72.94
2023-04-03T04:45:12.607Z,72.94
2023-04-03T04:46:12.846Z,72.94
2023-04-03T04:47:12.687Z,73.04
2023-04-03T04:48:12.601Z,73.24
2023-04-03T04:49:12.655Z,73.47
2023-04-03T04:50:12.640Z,74.08
2023-04-03T04:51:12.534Z,74.18
2023-04-03T04:52:12.545Z,74.38
2023-04-03T04:53:12.568Z,74.48
2023-04-03T04:54:12.558Z,74.58
2023-04-03T04:55:12.974Z,74.58
2023-04-03T04:56:12.481Z,75.02
2023-04-03T04:57:12.524Z,75.22
2023-04-03T04:58:12.519Z,75.02
2023-04-03T04:59:12.562Z,75.18
2023-04-03T05:00:12.586Z,75.18
2023-04-03T05:01:12.962Z,75.29
2023-04-03T05:02:12.539Z,75.42
2023-04-03T05:03:12.444Z,75.32
2023-04-03T05:04:12.447Z,75.42
2023-04-03T05:05:12.515Z,75.62
2023-04-03T05:06:12.452Z,75.52
2023-04-03T05:07:12.452Z,75.42
2023-04-03T05:08:12.350Z,75.52
2023-04-03T05:09:12.379Z,75.72
2023-04-03T05:10:12.431Z,75.72
2023-04-03T05:11:12.343Z,75.82
2023-04-03T05:12:12.385Z,76.12
2023-04-03T05:13:12.554Z,76.36
2023-04-03T05:14:12.294Z,76.26
2023-04-03T05:15:12.296Z,76.16
2023-04-03T05:16:12.368Z,76.46
2023-04-03T05:17:12.325Z,76.67
2023-04-03T05:18:12.392Z,76.67
2023-04-03T05:19:12.396Z,76.56
2023-04-03T05:20:12.232Z,76.43
2023-04-03T05:21:12.413Z,76.43
2023-04-03T05:22:12.312Z,76.32
2023-04-03T05:23:12.319Z,75.92
2023-04-03T05:24:12.263Z,75.72
2023-04-03T05:25:12.376Z,75.82
2023-04-03T05:26:12.175Z,76.23
2023-04-03T05:27:12.178Z,76.12
2023-04-03T05:28:12.188Z,75.92
2023-04-03T05:29:12.201Z,76.12
2023-04-03T05:30:12.264Z,76.23
2023-04-03T05:31:13.170Z,76.26
2023-04-03T05:32:12.178Z,76.46
2023-04-03T05:33:12.199Z,76.76
2023-04-03T05:34:12.134Z,76.56
2023-04-03T05:35:12.105Z,76.56
2023-04-03T05:36:12.110Z,76.67
2023-04-03T05:37:12.120Z,76.87
2023-04-03T05:38:12.048Z,76.16
2023-04-03T05:39:12.064Z,76.87
2023-04-03T05:40:12.036Z,76.87
2023-04-03T05:41:15.358Z,76.46
2023-04-03T05:42:12.038Z,76.67
2023-04-03T05:43:12.064Z,76.70
2023-04-03T05:44:12.046Z,76.80
2023-04-03T05:45:11.996Z,76.90
2023-04-03T05:46:11.991Z,77.00
2023-04-03T05:47:11.959Z,77.34
2023-04-03T05:48:12.122Z,77.64
2023-04-03T05:49:11.983Z,77.55
2023-04-03T05:50:11.995Z,77.40
2023-04-03T05:51:11.994Z,77.11
2023-04-03T05:52:12.004Z,77.00
2023-04-03T05:53:11.906Z,77.00
2023-04-03T05:54:12.075Z,76.80
2023-04-03T05:55:11.869Z,76.60
2023-04-03T05:56:11.951Z,76.10
2023-04-03T05:57:11.870Z,76.74
2023-04-03T05:58:11.958Z,77.24
2023-04-03T05:59:11.886Z,77.34
2023-04-03T06:00:11.766Z,77.04
2023-04-03T06:01:11.854Z,76.80
2023-04-03T06:02:11.862Z,76.90
2023-04-03T06:03:11.926Z,77.00
2023-04-03T06:04:11.889Z,76.70
2023-04-03T06:05:11.906Z,76.80
2023-04-03T06:06:11.709Z,77.11
2023-04-03T06:07:11.806Z,76.80
2023-04-03T06:08:12.325Z,77.00
2023-04-03T06:09:11.703Z,76.90
2023-04-03T06:10:11.765Z,76.80
2023-04-03T06:11:11.735Z,77.11
2023-04-03T06:12:11.728Z,77.34
2023-04-03T06:13:11.738Z,77.64
2023-04-03T06:14:11.693Z,77.95
2023-04-03T06:15:11.660Z,78.05
2023-04-03T06:16:11.676Z,78.05
2023-04-03T06:17:11.695Z,78.05
2023-04-03T06:18:11.696Z,78.15
2023-04-03T06:19:11.673Z,78.15
2023-04-03T06:20:11.681Z,78.05
2023-04-03T06:21:11.648Z,77.84
2023-04-03T06:22:11.607Z,77.70
2023-04-03T06:23:12.017Z,77.70
2023-04-03T06:24:11.624Z,77.81
2023-04-03T06:25:11.626Z,77.70
2023-04-03T06:26:11.617Z,77.50
2023-04-03T06:27:11.798Z,77.50
2023-04-03T06:28:11.622Z,77.95
2023-04-03T06:29:11.557Z,78.05
2023-04-03T06:30:11.540Z,77.95
2023-04-03T06:31:11.635Z,78.35
2023-04-03T06:32:11.475Z,78.55
2023-04-03T06:33:11.503Z,78.15
2023-04-03T06:34:11.483Z,77.95
2023-04-03T06:35:11.469Z,78.25
2023-04-03T06:36:11.504Z,77.91
2023-04-03T06:37:11.409Z,77.31
2023-04-03T06:38:11.485Z,77.11
2023-04-03T06:39:11.489Z,76.90
2023-04-03T06:40:11.507Z,77.24
2023-04-03T06:41:11.533Z,77.75
2023-04-03T06:42:11.336Z,78.15
2023-04-03T06:43:11.341Z,78.05
2023-04-03T06:44:11.380Z,77.95
2023-04-03T06:45:11.452Z,78.05
2023-04-03T06:46:11.399Z,78.15
2023-04-03T06:47:11.381Z,78.05
2023-04-03T06:48:11.409Z,77.84
2023-04-03T06:49:11.294Z,77.70
2023-04-03T06:50:11.283Z,77.40
2023-04-03T06:51:11.394Z,77.31
2023-04-03T06:52:11.493Z,77.40
2023-04-03T06:53:11.535Z,77.40
2023-04-03T06:54:11.246Z,77.61
2023-04-03T06:55:11.240Z,77.50
2023-04-03T06:56:11.241Z,77.70
2023-04-03T06:57:11.270Z,77.70
2023-04-03T06:58:11.967Z,77.50
2023-04-03T06:59:11.270Z,77.61
2023-04-03T07:00:11.153Z,77.61
2023-04-03T07:01:11.779Z,77.70
2023-04-03T07:02:11.385Z,78.15
2023-04-03T07:03:11.255Z,78.45
2023-04-03T07:04:11.191Z,78.35
2023-04-03T07:05:11.284Z,78.35
2023-04-03T07:06:11.099Z,78.85
2023-04-03T07:07:11.254Z,78.75
2023-04-03T07:08:11.121Z,79.19
2023-04-03T07:09:11.156Z,79.05
2023-04-03T07:10:11.156Z,78.75
2023-04-03T07:11:11.120Z,78.75
2023-04-03T07:12:11.031Z,77.95
2023-04-03T07:13:11.103Z,77.84
2023-04-03T07:14:11.086Z,78.05
2023-04-03T07:15:11.140Z,78.05
2023-04-03T07:16:11.024Z,77.81
2023-04-03T07:17:10.964Z,77.81
2023-04-03T07:18:11.042Z,77.81
2023-04-03T07:19:10.979Z,77.61
2023-04-03T07:20:11.676Z,77.40
2023-04-03T07:21:11.391Z,77.11
2023-04-03T07:22:10.901Z,77.55
2023-04-03T07:23:10.899Z,77.84
2023-04-03T07:24:13.191Z,77.64
2023-04-03T07:25:10.887Z,77.64
2023-04-03T07:26:10.997Z,77.70
2023-04-03T07:27:10.908Z,77.70
2023-04-03T07:28:10.830Z,77.70
2023-04-03T07:29:10.840Z,77.40
2023-04-03T07:30:10.865Z,77.20
2023-04-03T07:31:11.083Z,77.20
2023-04-03T07:32:11.500Z,77.11
2023-04-03T07:33:11.511Z,77.40
2023-04-03T07:34:11.687Z,77.31
2023-04-03T07:35:11.778Z,77.20
2023-04-03T07:36:10.776Z,77.40
2023-04-03T07:37:10.791Z,77.00
2023-04-03T07:38:12.507Z,77.50
2023-04-03T07:39:11.522Z,77.40
2023-04-03T07:40:10.694Z,77.44
2023-04-03T07:41:10.709Z,77.95
2023-04-03T07:42:11.949Z,78.25
2023-04-03T07:43:10.732Z,78.15
2023-04-03T07:44:10.922Z,78.15
2023-04-03T07:45:10.655Z,78.05
2023-04-03T07:46:10.711Z,78.05
2023-04-03T07:47:10.656Z,78.45
2023-04-03T07:48:10.631Z,78.55
2023-04-03T07:49:13.810Z,78.45
2023-04-03T07:50:16.591Z,78.05
2023-04-03T07:51:14.464Z,78.45
2023-04-03T07:52:10.687Z,78.15
2023-04-03T07:53:10.684Z,77.84
2023-04-03T07:54:10.648Z,77.50
2023-04-03T07:55:10.604Z,77.50
2023-04-03T07:56:10.615Z,77.50
2023-04-03T07:57:10.624Z,77.61
2023-04-03T07:58:10.596Z,77.50
2023-04-03T07:59:10.635Z,77.70
2023-04-03T08:00:10.546Z,77.40
2023-04-03T08:01:10.545Z,77.40
2023-04-03T08:02:10.546Z,77.00
2023-04-03T08:03:12.422Z,77.11
2023-04-03T08:04:10.639Z,77.50
2023-04-03T08:05:10.559Z,77.70
2023-04-03T08:06:15.775Z,77.70
2023-04-03T08:07:10.506Z,77.40
2023-04-03T08:08:10.466Z,77.61
2023-04-03T08:09:10.478Z,77.64
2023-04-03T08:10:10.494Z,77.70
2023-04-03T08:11:10.478Z,77.70
2023-04-03T08:12:10.409Z,77.70
2023-04-03T08:13:10.439Z,77.70
2023-04-03T08:14:10.445Z,77.50
2023-04-03T08:15:10.450Z,77.61
2023-04-03T08:16:10.436Z,77.61
2023-04-03T08:17:10.432Z,77.61
2023-04-03T08:18:10.366Z,77.50
2023-04-03T08:19:18.756Z,77.40
2023-04-03T08:20:10.366Z,77.40
2023-04-03T08:21:10.446Z,77.31
2023-04-03T08:22:10.382Z,77.40
2023-04-03T08:23:10.370Z,77.00
2023-04-03T08:24:10.307Z,77.31
2023-04-03T08:25:10.310Z,77.20
2023-04-03T08:26:10.272Z,77.20
2023-04-03T08:27:10.294Z,77.31
2023-04-03T08:28:10.290Z,77.50
2023-04-03T08:29:10.243Z,77.31
2023-04-03T08:30:10.220Z,77.31
2023-04-03T08:31:10.261Z,77.11
2023-04-03T08:32:10.570Z,77.11
2023-04-03T08:33:10.345Z,77.00
2023-04-03T08:34:10.220Z,76.70
2023-04-03T08:35:10.257Z,76.70
2023-04-03T08:36:10.196Z,77.00
2023-04-03T08:37:10.168Z,76.90
2023-04-03T08:38:10.185Z,77.00
2023-04-03T08:39:10.166Z,77.11
2023-04-03T08:40:10.088Z,77.34
2023-04-03T08:41:10.170Z,77.44
2023-04-03T08:42:10.107Z,77.95
2023-04-03T08:43:12.064Z,78.05
2023-04-03T08:44:10.158Z,77.95
2023-04-03T08:45:10.159Z,77.34
2023-04-03T08:46:10.136Z,77.64
2023-04-03T08:47:10.054Z,77.75
2023-04-03T08:48:10.224Z,77.75
2023-04-03T08:49:10.565Z,77.75
2023-04-03T08:50:10.767Z,77.44
2023-04-03T08:51:12.543Z,77.24
2023-04-03T08:52:10.076Z,77.14
2023-04-03T08:53:09.977Z,77.48
2023-04-03T08:54:10.045Z,77.38
2023-04-03T08:55:09.994Z,77.98
2023-04-03T08:56:10.009Z,78.19
2023-04-03T08:57:10.070Z,77.98
2023-04-03T08:58:09.900Z,77.38
2023-04-03T08:59:09.921Z,77.48
2023-04-03T09:00:10.524Z,77.68
2023-04-03T09:01:09.929Z,77.68
2023-04-03T09:02:09.840Z,77.48
2023-04-03T09:03:11.194Z,77.48
2023-04-03T09:04:10.036Z,77.38
2023-04-03T09:05:09.862Z,77.17
2023-04-03T09:06:09.845Z,77.38
2023-04-03T09:07:09.961Z,77.58
2023-04-03T09:08:09.875Z,77.28
2023-04-03T09:09:09.795Z,77.24
2023-04-03T09:10:09.789Z,76.97
2023-04-03T09:11:10.101Z,77.04
2023-04-03T09:12:09.801Z,76.74
2023-04-03T09:13:10.727Z,76.94
2023-04-03T09:14:09.847Z,76.43
2023-04-03T09:15:09.723Z,76.23
2023-04-03T09:16:09.800Z,76.54
2023-04-03T09:17:09.727Z,76.27
2023-04-03T09:18:09.678Z,76.67
2023-04-03T09:19:09.880Z,76.97
2023-04-03T09:20:09.647Z,76.87
2023-04-03T09:21:09.665Z,77.08
2023-04-03T09:22:09.783Z,77.08
2023-04-03T09:23:09.665Z,77.08
2023-04-03T09:24:09.685Z,76.97
2023-04-03T09:25:09.666Z,76.87
2023-04-03T09:26:09.603Z,76.77
2023-04-03T09:27:09.640Z,76.67
2023-04-03T09:28:09.607Z,76.77
2023-04-03T09:29:09.721Z,76.47
2023-04-03T09:30:09.506Z,76.57
2023-04-03T09:31:09.598Z,76.57
2023-04-03T09:32:09.517Z,76.47
2023-04-03T09:33:09.727Z,76.47
2023-04-03T09:34:09.611Z,76.54
2023-04-03T09:35:20.538Z,75.87
2023-04-03T09:36:11.530Z,76.17
2023-04-03T09:37:09.554Z,76.27
2023-04-03T09:38:09.454Z,76.37
2023-04-03T09:39:09.464Z,76.47
2023-04-03T09:40:09.489Z,76.57
2023-04-03T09:41:09.429Z,76.77
2023-04-03T09:42:10.394Z,76.67
2023-04-03T09:43:09.392Z,76.37
2023-04-03T09:44:09.487Z,76.23
2023-04-03T09:45:09.409Z,76.43
2023-04-03T09:46:09.474Z,76.14
2023-04-03T09:47:10.141Z,76.43
2023-04-03T09:48:15.406Z,76.67
2023-04-03T09:49:10.094Z,76.67
2023-04-03T09:50:10.757Z,76.37
2023-04-03T09:51:09.443Z,76.37
2023-04-03T09:52:09.332Z,76.27
2023-04-03T09:53:09.446Z,76.37
2023-04-03T09:54:09.356Z,76.27
2023-04-03T09:55:09.268Z,76.37
2023-04-03T09:56:09.260Z,76.47
2023-04-03T09:57:09.312Z,76.37
2023-04-03T09:58:09.277Z,76.07
2023-04-03T09:59:09.286Z,76.07
2023-04-03T10:00:09.193Z,76.27
2023-04-03T10:01:11.386Z,75.96
2023-04-03T10:02:09.273Z,76.27
2023-04-03T10:03:09.252Z,76.47
2023-04-03T10:04:09.232Z,76.67
2023-04-03T10:05:10.214Z,76.57
2023-04-03T10:06:09.129Z,76.57
2023-04-03T10:07:09.137Z,76.67
2023-04-03T10:08:10.085Z,76.67
2023-04-03T10:09:09.870Z,76.37
2023-04-03T10:10:09.128Z,76.57
2023-04-03T10:11:09.087Z,76.57
2023-04-03T10:12:09.174Z,76.37
2023-04-03T10:13:10.605Z,76.67
2023-04-03T10:14:09.776Z,76.87
2023-04-03T10:15:09.090Z,76.87
2023-04-03T10:16:10.054Z,76.57
2023-04-03T10:17:09.061Z,76.87
2023-04-03T10:18:21.613Z,76.27
2023-04-03T10:19:09.018Z,76.57
2023-04-03T10:20:09.079Z,76.77
2023-04-03T10:21:14.469Z,76.87
2023-04-03T10:22:09.102Z,76.43
2023-04-03T10:23:08.993Z,76.64
2023-04-03T10:24:09.010Z,76.23
2023-04-03T10:25:09.014Z,76.34
2023-04-03T10:26:08.937Z,76.64
2023-04-03T10:27:08.979Z,76.43
2023-04-03T10:28:09.025Z,75.83
2023-04-03T10:29:08.937Z,76.43
2023-04-03T10:30:08.959Z,76.64
2023-04-03T10:31:08.897Z,76.84
2023-04-03T10:32:08.878Z,76.90
2023-04-03T10:33:09.056Z,76.40
2023-04-03T10:34:08.887Z,76.20
2023-04-03T10:35:09.923Z,76.10
2023-04-03T10:36:08.934Z,75.90
2023-04-03T10:37:08.902Z,75.70
2023-04-03T10:38:08.899Z,75.99
2023-04-03T10:39:09.222Z,75.59
2023-04-03T10:40:08.834Z,75.79
2023-04-03T10:41:09.632Z,75.70
2023-04-03T10:42:16.134Z,76.10
2023-04-03T10:43:08.827Z,75.76
2023-04-03T10:44:08.852Z,75.66
2023-04-03T10:45:08.965Z,75.56
2023-04-03T10:46:08.905Z,75.46
2023-04-03T10:47:08.868Z,75.12
2023-04-03T10:48:09.174Z,75.42
2023-04-03T10:49:08.678Z,76.12
2023-04-03T10:50:08.690Z,75.42
2023-04-03T10:51:08.779Z,75.56
2023-04-03T10:52:09.716Z,75.86
2023-04-03T10:53:09.623Z,76.06
2023-04-03T10:54:08.616Z,76.36
2023-04-03T10:55:08.621Z,76.36
2023-04-03T10:56:08.714Z,76.53
2023-04-03T10:57:13.159Z,75.96
2023-04-03T10:58:08.735Z,76.56
2023-04-03T10:59:09.353Z,76.36
2023-04-03T11:00:08.630Z,76.56
2023-04-03T11:01:08.576Z,76.97
2023-04-03T11:02:08.662Z,76.36
2023-04-03T11:03:09.381Z,76.46
2023-04-03T11:04:08.792Z,77.47
2023-04-03T11:05:08.586Z,77.33
2023-04-03T11:06:08.491Z,76.53
2023-04-03T11:07:08.492Z,76.09
2023-04-03T11:08:08.519Z,75.89
2023-04-03T11:09:08.471Z,75.25
2023-04-03T11:10:08.595Z,75.75
2023-04-03T11:11:08.530Z,74.15
2023-04-03T11:12:08.431Z,74.44
2023-04-03T11:13:08.526Z,74.85
2023-04-03T11:14:08.513Z,74.95
2023-04-03T11:15:08.429Z,75.05
2023-04-03T11:16:09.074Z,74.85
2023-04-03T11:17:08.453Z,74.95
2023-04-03T11:18:10.433Z,74.71
2023-04-03T11:19:08.446Z,74.91
2023-04-03T11:20:08.382Z,74.81
2023-04-03T11:21:08.497Z,74.37
2023-04-03T11:22:08.393Z,73.97
2023-04-03T11:23:08.386Z,74.48
2023-04-03T11:24:08.381Z,74.48
2023-04-03T11:25:08.305Z,73.07
2023-04-03T11:26:09.120Z,73.47
2023-04-03T11:27:08.425Z,74.18
2023-04-03T11:28:08.430Z,74.57
2023-04-03T11:29:08.442Z,73.03
2023-04-03T11:30:08.323Z,73.74
2023-04-03T11:31:09.270Z,72.74
2023-04-03T11:32:08.666Z,72.24
2023-04-03T11:33:08.401Z,72.50
2023-04-03T11:34:10.098Z,72.30
2023-04-03T11:35:08.433Z,72.06
2023-04-03T11:36:19.004Z,71.46
2023-04-03T11:37:09.142Z,71.96
2023-04-03T11:38:08.385Z,72.13
2023-04-03T11:39:08.294Z,71.43
2023-04-03T11:40:08.719Z,70.73
2023-04-03T11:41:09.751Z,70.09
2023-04-03T11:42:13.144Z,69.99
2023-04-03T11:43:08.216Z,69.79
2023-04-03T11:44:08.220Z,69.59
2023-04-03T11:45:08.228Z,69.59
2023-04-03T11:46:08.272Z,69.29
2023-04-03T11:47:08.429Z,69.39
2023-04-03T11:48:21.213Z,69.39
2023-04-03T11:49:08.611Z,69.09
2023-04-03T11:50:08.256Z,68.89
2023-04-03T11:51:08.170Z,69.69
2023-04-03T11:52:08.171Z,69.59
2023-04-03T11:53:08.303Z,69.69
2023-04-03T11:54:10.641Z,69.49
2023-04-03T11:55:08.093Z,68.12
2023-04-03T11:56:08.915Z,69.32
2023-04-03T11:57:08.062Z,69.82
2023-04-03T11:58:08.828Z,68.82
2023-04-03T11:59:07.951Z,69.02
2023-04-03T12:00:07.954Z,68.42
2023-04-03T12:01:08.030Z,69.12
2023-04-03T12:02:08.577Z,68.29
2023-04-03T12:03:08.140Z,67.92
2023-04-03T12:04:09.714Z,68.32
2023-04-03T12:05:07.992Z,68.82
2023-04-03T12:06:09.326Z,68.52
2023-04-03T12:07:10.670Z,68.82
2023-04-03T12:08:07.904Z,68.02
2023-04-03T12:09:08.180Z,68.09
2023-04-03T12:10:08.739Z,68.49
2023-04-03T12:11:07.893Z,68.59
2023-04-03T12:12:08.436Z,67.55
2023-04-03T12:13:07.900Z,66.52
2023-04-03T12:14:08.039Z,65.42
2023-04-03T12:15:07.744Z,66.13
2023-04-03T12:16:07.918Z,66.72
2023-04-03T12:17:07.911Z,66.82
2023-04-03T12:18:07.897Z,70.03
2023-04-03T12:19:07.769Z,69.23
2023-04-03T12:20:07.749Z,68.73
2023-04-03T12:21:07.755Z,68.52
2023-04-03T12:22:08.406Z,70.49
2023-04-03T12:23:07.802Z,69.89
2023-04-03T12:24:07.755Z,67.40
2023-04-03T12:25:07.776Z,69.09
2023-04-03T12:26:07.738Z,69.69
2023-04-03T12:27:07.671Z,69.49
2023-04-03T12:28:08.213Z,69.19
2023-04-03T12:29:09.376Z,68.76
2023-04-03T12:30:07.634Z,66.46
2023-04-03T12:31:07.682Z,65.29
2023-04-03T12:32:07.632Z,65.99
2023-04-03T12:33:13.185Z,67.72
2023-04-03T12:34:07.647Z,68.23
2023-04-03T12:35:07.781Z,68.89
2023-04-03T12:36:07.707Z,66.52
2023-04-03T12:37:07.553Z,68.93
2023-04-03T12:38:07.506Z,69.53
2023-04-03T12:39:07.598Z,66.93
2023-04-03T12:40:08.324Z,69.43
2023-04-03T12:41:07.616Z,70.53
2023-04-03T12:42:07.578Z,68.69
2023-04-03T12:43:07.627Z,68.19
2023-04-03T12:44:07.911Z,67.56
2023-04-03T12:45:07.513Z,69.36
2023-04-03T12:46:07.807Z,67.93
2023-04-03T12:47:07.515Z,67.83
2023-04-03T12:48:07.563Z,67.03
2023-04-03T12:49:07.429Z,68.19
2023-04-03T12:50:07.375Z,67.60
2023-04-03T12:51:07.379Z,67.60
2023-04-03T12:52:07.758Z,66.50